createdAt,value
2022-08-21T00:00:00.937Z,8.20
2022-08-21T00:02:32.272Z,8.45
2022-08-21T00:05:02.420Z,9.45
2022-08-21T00:07:32.253Z,9.50
2022-08-21T00:10:02.206Z,10.68
2022-08-21T00:12:33.752Z,9.93
2022-08-21T00:15:04.324Z,9.75
2022-08-21T00:17:40.788Z,9.07
2022-08-21T00:20:16.414Z,9.18
2022-08-21T00:22:46.712Z,10.35
2022-08-21T00:25:19.744Z,9.75
2022-08-21T00:27:56.180Z,9.50
2022-08-21T00:30:29.552Z,11.05
2022-08-21T00:33:00.201Z,11.45
2022-08-21T00:35:35.305Z,11.70
2022-08-21T00:38:06.444Z,11.57
2022-08-21T00:40:39.432Z,12.20
2022-08-21T00:43:16.558Z,11.60
2022-08-21T00:45:48.096Z,11.70
2022-08-21T00:48:17.544Z,11.88
2022-08-21T00:50:51.708Z,11.75
2022-08-21T00:53:21.872Z,12.13
2022-08-21T00:55:52.304Z,10.85
2022-08-21T00:58:26.220Z,10.73
2022-08-21T01:00:59.835Z,10.32
2022-08-21T01:03:29.288Z,10.85
2022-08-21T01:05:58.524Z,10.68
2022-08-21T01:08:29.152Z,10.30
2022-08-21T01:10:59.704Z,11.07
2022-08-21T01:13:34.928Z,10.85
2022-08-21T01:16:07.236Z,10.43
2022-08-21T01:18:36.615Z,11.40
2022-08-21T01:21:12.590Z,10.88
2022-08-21T01:23:45.291Z,11.02
2022-08-21T01:26:17.927Z,10.70
2022-08-21T01:28:52.515Z,10.85
2022-08-21T01:31:26.165Z,9.25
2022-08-21T01:33:56.251Z,9.73
2022-08-21T01:36:29.147Z,9.23
2022-08-21T01:38:58.640Z,9.20
2022-08-21T01:41:29.050Z,9.82
2022-08-21T01:43:58.755Z,9.15
2022-08-21T01:46:28.015Z,8.65
2022-08-21T01:48:59.583Z,8.73
2022-08-21T01:51:31.294Z,8.82
2022-08-21T01:54:00.983Z,8.52
2022-08-21T01:56:30.447Z,8.32
2022-08-21T01:58:59.575Z,7.65
2022-08-21T02:01:28.742Z,7.72
2022-08-21T02:03:58.571Z,7.82
2022-08-21T02:06:32.106Z,8.50
2022-08-21T02:09:01.600Z,7.95
2022-08-21T02:11:31.003Z,6.97
2022-08-21T02:14:00.186Z,7.25
2022-08-21T02:16:30.118Z,7.70
2022-08-21T02:19:03.350Z,6.55
2022-08-21T02:21:34.248Z,6.22
2022-08-21T02:24:05.688Z,6.75
2022-08-21T02:26:35.611Z,6.10
2022-08-21T02:29:07.235Z,7.32
2022-08-21T02:31:37.755Z,6.43
2022-08-21T02:34:10.599Z,5.97
2022-08-21T02:36:41.598Z,5.95
2022-08-21T02:39:11.122Z,5.28
2022-08-21T02:41:40.690Z,5.40
2022-08-21T02:44:09.783Z,5.78
2022-08-21T02:46:38.826Z,5.00
2022-08-21T02:49:07.882Z,4.47
2022-08-21T02:51:37.107Z,4.75
2022-08-21T02:54:09.091Z,4.60
2022-08-21T02:56:38.922Z,4.07
2022-08-21T02:59:08.179Z,4.43
2022-08-21T03:01:38.793Z,3.70
2022-08-21T03:04:08.210Z,3.47
2022-08-21T03:06:37.250Z,3.40
2022-08-21T03:09:09.073Z,3.53
2022-08-21T03:11:38.533Z,3.20
2022-08-21T03:14:10.619Z,3.03
2022-08-21T03:16:39.949Z,3.08
2022-08-21T03:19:08.841Z,2.97
2022-08-21T03:21:39.209Z,3.00
2022-08-21T03:24:11.938Z,2.63
2022-08-21T03:26:41.518Z,2.80
2022-08-21T03:29:11.229Z,3.20
2022-08-21T03:31:41.185Z,2.97
2022-08-21T03:34:13.397Z,3.00
2022-08-21T03:36:44.929Z,2.90
2022-08-21T03:39:16.546Z,3.17
2022-08-21T03:41:52.084Z,3.13
2022-08-21T03:44:21.654Z,3.50
2022-08-21T03:46:51.068Z,3.43
2022-08-21T03:49:22.952Z,3.23
2022-08-21T03:51:59.770Z,3.40
2022-08-21T03:54:30.636Z,3.83
2022-08-21T03:57:00.162Z,4.20
2022-08-21T03:59:30.010Z,3.88
2022-08-21T04:02:02.151Z,3.80
2022-08-21T04:04:33.116Z,4.25
2022-08-21T04:07:04.020Z,4.68
2022-08-21T04:09:34.704Z,4.40
2022-08-21T04:12:07.364Z,4.53
2022-08-21T04:14:37.340Z,4.72
2022-08-21T04:17:07.545Z,4.50
2022-08-21T04:19:36.601Z,4.97
2022-08-21T04:22:07.298Z,4.55
2022-08-21T04:24:38.484Z,4.60
2022-08-21T04:27:08.336Z,4.50
2022-08-21T04:29:40.068Z,4.53
2022-08-21T04:32:10.893Z,5.38
2022-08-21T04:34:39.965Z,4.70
2022-08-21T04:37:10.496Z,4.35
2022-08-21T04:39:42.873Z,4.72
2022-08-21T04:42:12.924Z,3.92
2022-08-21T04:44:43.381Z,4.07
2022-08-21T04:47:12.651Z,4.28
2022-08-21T04:49:42.419Z,4.35
2022-08-21T04:52:14.209Z,3.78
2022-08-21T04:54:50.178Z,4.43
2022-08-21T04:57:24.429Z,4.22
2022-08-21T05:00:14.691Z,4.65
2022-08-21T05:02:44.615Z,4.15
2022-08-21T05:05:14.242Z,4.22
2022-08-21T05:07:47.435Z,4.10
2022-08-21T05:10:20.961Z,4.13
2022-08-21T05:12:51.074Z,3.40
2022-08-21T05:15:23.295Z,4.10
2022-08-21T05:18:01.256Z,3.60
2022-08-21T05:20:32.940Z,3.90
2022-08-21T05:23:03.983Z,3.90
2022-08-21T05:25:36.151Z,3.92
2022-08-21T05:28:09.055Z,3.87
2022-08-21T05:30:39.847Z,3.40
2022-08-21T05:33:10.335Z,3.70
2022-08-21T05:35:41.814Z,3.83
2022-08-21T05:38:16.722Z,4.07
2022-08-21T05:40:50.489Z,3.70
2022-08-21T05:43:20.994Z,4.00
2022-08-21T05:45:52.266Z,3.87
2022-08-21T05:48:26.623Z,3.67
2022-08-21T05:50:58.133Z,3.10
2022-08-21T05:53:28.606Z,3.20
2022-08-21T05:56:00.462Z,2.90
2022-08-21T05:58:30.213Z,2.90
2022-08-21T06:01:00.186Z,3.13
2022-08-21T06:03:38.266Z,3.00
2022-08-21T06:06:10.046Z,3.13
2022-08-21T06:08:40.026Z,2.83
2022-08-21T06:11:11.666Z,3.00
2022-08-21T06:13:42.952Z,3.23
2022-08-21T06:16:15.740Z,2.83
2022-08-21T06:18:46.727Z,3.23
2022-08-21T06:21:17.369Z,2.93
2022-08-21T06:23:53.881Z,3.00
2022-08-21T06:26:27.341Z,2.90
2022-08-21T06:28:59.281Z,2.80
2022-08-21T06:31:31.073Z,2.60
2022-08-21T06:34:02.881Z,2.70
2022-08-21T06:36:32.235Z,2.53
2022-08-21T06:39:02.131Z,2.70
2022-08-21T06:41:47.930Z,2.83
2022-08-21T06:44:20.974Z,2.50
2022-08-21T06:46:53.890Z,2.20
2022-08-21T06:49:23.512Z,2.60
2022-08-21T06:51:55.774Z,2.53
2022-08-21T06:54:27.997Z,2.30
2022-08-21T06:57:00.295Z,2.60
2022-08-21T06:59:29.945Z,2.30
2022-08-21T07:01:59.844Z,2.50
2022-08-21T07:04:34.568Z,2.80
2022-08-21T07:07:04.197Z,2.90
2022-08-21T07:09:37.098Z,2.47
2022-08-21T07:12:13.448Z,3.23
2022-08-21T07:14:44.385Z,3.40
2022-08-21T07:17:13.548Z,4.03
2022-08-21T07:19:42.840Z,4.23
2022-08-21T07:22:15.713Z,4.07
2022-08-21T07:24:45.888Z,4.07
2022-08-21T07:27:18.144Z,4.77
2022-08-21T07:29:48.260Z,4.73
2022-08-21T07:32:22.325Z,4.30
2022-08-21T07:34:54.899Z,4.30
2022-08-21T07:37:25.669Z,5.10
2022-08-21T07:39:56.858Z,5.20
2022-08-21T07:42:35.372Z,4.43
2022-08-21T07:45:07.048Z,4.63
2022-08-21T07:47:42.464Z,4.00
2022-08-21T07:50:15.851Z,4.20
2022-08-21T07:52:49.209Z,4.30
2022-08-21T07:55:22.046Z,4.33
2022-08-21T07:57:54.154Z,4.00
2022-08-21T08:00:27.532Z,4.23
2022-08-21T08:02:57.665Z,4.20
2022-08-21T08:05:30.323Z,4.00
2022-08-21T08:08:01.816Z,3.63
2022-08-21T08:10:31.536Z,3.87
2022-08-21T08:13:02.336Z,3.30
2022-08-21T08:15:37.405Z,3.50
2022-08-21T08:18:09.527Z,3.53
2022-08-21T08:20:40.175Z,3.47
2022-08-21T08:23:12.768Z,3.43
2022-08-21T08:25:42.825Z,3.70
2022-08-21T08:28:17.923Z,3.50
2022-08-21T08:30:50.503Z,2.97
2022-08-21T08:33:20.247Z,3.17
2022-08-21T08:35:53.172Z,3.13
2022-08-21T08:38:24.458Z,3.33
2022-08-21T08:41:01.899Z,2.93
2022-08-21T08:43:38.147Z,3.03
2022-08-21T08:46:16.207Z,3.00
2022-08-21T08:48:54.438Z,3.17
2022-08-21T08:51:32.316Z,3.27
2022-08-21T08:54:06.637Z,3.30
2022-08-21T08:56:39.129Z,3.43
2022-08-21T08:59:17.354Z,3.23
2022-08-21T09:01:47.818Z,3.13
2022-08-21T09:04:30.611Z,2.90
2022-08-21T09:07:12.763Z,2.90
2022-08-21T09:10:07.330Z,2.70
2022-08-21T09:12:43.517Z,2.40
2022-08-21T09:15:21.463Z,2.50
2022-08-21T09:18:18.557Z,2.30
2022-08-21T09:20:59.590Z,2.17
2022-08-21T09:23:40.994Z,2.27
2022-08-21T09:26:15.130Z,2.47
2022-08-21T09:28:46.518Z,2.00
2022-08-21T09:31:26.974Z,1.93
2022-08-21T09:34:01.547Z,2.03
2022-08-21T09:36:41.778Z,1.97
2022-08-21T09:39:14.016Z,1.90
2022-08-21T09:41:43.836Z,1.97
2022-08-21T09:44:13.643Z,1.90
2022-08-21T09:46:55.769Z,2.00
2022-08-21T09:49:35.480Z,2.37
2022-08-21T09:52:07.117Z,1.93
2022-08-21T09:54:41.917Z,2.00
2022-08-21T09:57:42.842Z,1.80
2022-08-21T10:00:22.932Z,2.03
2022-08-21T10:02:57.284Z,2.10
2022-08-21T10:05:29.884Z,2.30
2022-08-21T10:08:01.874Z,2.17
2022-08-21T10:10:34.114Z,2.40
2022-08-21T10:13:09.456Z,2.50
2022-08-21T10:15:50.660Z,2.20
2022-08-21T10:18:31.259Z,2.40
2022-08-21T10:21:12.090Z,2.40
2022-08-21T10:23:58.925Z,2.30
2022-08-21T10:26:45.737Z,2.30
2022-08-21T10:29:31.591Z,2.33
2022-08-21T10:32:17.316Z,2.40
2022-08-21T10:35:05.383Z,2.23
2022-08-21T10:37:46.187Z,2.40
2022-08-21T10:40:23.917Z,2.20
2022-08-21T10:43:05.262Z,2.37
2022-08-21T10:45:50.004Z,2.20
2022-08-21T10:48:36.816Z,2.30
2022-08-21T10:51:17.597Z,1.90
2022-08-21T10:53:59.643Z,2.00
2022-08-21T10:56:32.234Z,2.10
2022-08-21T10:59:21.349Z,2.40
2022-08-21T11:01:56.098Z,2.10
2022-08-21T11:04:35.974Z,2.30
2022-08-21T11:07:26.826Z,1.90
2022-08-21T11:10:06.487Z,1.93
2022-08-21T11:12:43.871Z,2.20
2022-08-21T11:15:29.643Z,2.03
2022-08-21T11:18:12.783Z,2.00
2022-08-21T11:20:50.407Z,1.97
2022-08-21T11:23:30.062Z,2.20
2022-08-21T11:26:07.998Z,2.30
2022-08-21T11:28:44.394Z,1.90
2022-08-21T11:31:35.270Z,2.40
2022-08-21T11:34:21.965Z,1.97
2022-08-21T11:37:01.763Z,2.40
2022-08-21T11:39:45.469Z,2.47
2022-08-21T11:42:23.239Z,2.30
2022-08-21T11:44:59.886Z,2.27
2022-08-21T11:47:39.193Z,2.40
2022-08-21T11:50:32.541Z,2.47
2022-08-21T11:53:15.378Z,2.30
2022-08-21T11:55:50.737Z,2.30
2022-08-21T11:58:26.444Z,2.10
2022-08-21T12:01:00.853Z,2.37
2022-08-21T12:03:34.350Z,2.20
2022-08-21T12:06:08.501Z,2.40
2022-08-21T12:08:40.720Z,2.47
2022-08-21T12:11:30.745Z,2.30
2022-08-21T12:14:03.063Z,2.70
2022-08-21T12:16:35.172Z,2.90
2022-08-21T12:19:09.709Z,2.47
2022-08-21T12:21:53.837Z,2.43
2022-08-21T12:24:36.831Z,2.40
2022-08-21T12:27:26.863Z,2.80
2022-08-21T12:29:59.004Z,2.70
2022-08-21T12:32:32.609Z,2.90
2022-08-21T12:35:15.369Z,2.60
2022-08-21T12:38:00.364Z,2.50
2022-08-21T12:40:45.114Z,2.50
2022-08-21T12:43:22.574Z,2.80
2022-08-21T12:45:54.320Z,2.73
2022-08-21T12:48:31.994Z,2.63
2022-08-21T12:51:10.525Z,2.50
2022-08-21T12:53:47.223Z,2.93
2022-08-21T12:56:21.377Z,2.73
2022-08-21T12:58:59.224Z,2.83
2022-08-21T13:01:38.188Z,2.63
2022-08-21T13:04:15.505Z,3.23
2022-08-21T13:06:49.657Z,3.07
2022-08-21T13:09:23.329Z,2.97
2022-08-21T13:11:53.892Z,3.20
2022-08-21T13:14:34.643Z,3.07
2022-08-21T13:17:10.209Z,3.33
2022-08-21T13:19:40.509Z,2.87
2022-08-21T13:22:33.505Z,3.00
2022-08-21T13:25:06.718Z,2.90
2022-08-21T13:27:37.874Z,3.00
2022-08-21T13:30:15.887Z,3.00
2022-08-21T13:32:48.355Z,3.47
2022-08-21T13:35:21.423Z,3.10
2022-08-21T13:37:53.206Z,2.90
2022-08-21T13:40:29.971Z,2.92
2022-08-21T13:43:06.683Z,3.30
2022-08-21T13:45:59.753Z,3.03
2022-08-21T13:48:36.882Z,3.20
2022-08-21T13:51:08.359Z,3.20
2022-08-21T13:53:39.868Z,3.00
2022-08-21T13:56:09.955Z,3.15
2022-08-21T13:58:49.118Z,2.92
2022-08-21T14:01:30.544Z,3.10
2022-08-21T14:04:07.375Z,3.13
2022-08-21T14:06:40.157Z,3.37
2022-08-21T14:09:16.743Z,3.55
2022-08-21T14:11:46.444Z,3.17
2022-08-21T14:14:26.206Z,3.30
2022-08-21T14:17:24.591Z,3.40
2022-08-21T14:19:54.226Z,3.17
2022-08-21T14:22:46.022Z,3.53
2022-08-21T14:25:33.766Z,3.80
2022-08-21T14:28:13.213Z,3.23
2022-08-21T14:30:51.347Z,3.40
2022-08-21T14:33:28.926Z,3.73
2022-08-21T14:35:59.502Z,3.43
2022-08-21T14:38:31.345Z,3.87
2022-08-21T14:41:07.012Z,3.93
2022-08-21T14:43:38.911Z,3.77
2022-08-21T14:46:12.543Z,3.63
2022-08-21T14:48:44.930Z,3.70
2022-08-21T14:51:14.594Z,3.67
2022-08-21T14:53:45.906Z,4.10
2022-08-21T14:56:15.862Z,4.60
2022-08-21T14:58:48.204Z,3.60
2022-08-21T15:01:22.172Z,3.53
2022-08-21T15:03:56.884Z,3.80
2022-08-21T15:06:26.480Z,3.77
2022-08-21T15:09:04.929Z,4.27
2022-08-21T15:11:41.788Z,3.90
2022-08-21T15:14:20.909Z,3.80
2022-08-21T15:16:52.149Z,4.43
2022-08-21T15:19:32.225Z,3.57
2022-08-21T15:22:03.172Z,3.30
2022-08-21T15:24:34.428Z,3.67
2022-08-21T15:27:09.658Z,4.20
2022-08-21T15:29:42.996Z,3.87
2022-08-21T15:32:29.658Z,3.47
2022-08-21T15:35:03.147Z,3.90
2022-08-21T15:37:32.743Z,3.60
2022-08-21T15:40:07.925Z,3.50
2022-08-21T15:42:41.747Z,3.73
2022-08-21T15:45:15.576Z,3.80
2022-08-21T15:47:49.115Z,4.27
2022-08-21T15:50:22.440Z,4.57
2022-08-21T15:52:53.548Z,4.40
2022-08-21T15:55:24.911Z,4.00
2022-08-21T15:57:57.967Z,3.87
2022-08-21T16:00:30.364Z,3.93
2022-08-21T16:03:02.659Z,4.17
2022-08-21T16:05:35.179Z,3.73
2022-08-21T16:08:05.574Z,4.18
2022-08-21T16:10:38.023Z,4.15
2022-08-21T16:13:14.720Z,3.97
2022-08-21T16:15:44.179Z,4.00
2022-08-21T16:18:18.152Z,3.90
2022-08-21T16:20:52.771Z,3.90
2022-08-21T16:23:22.481Z,3.80
2022-08-21T16:25:52.757Z,3.75
2022-08-21T16:28:26.258Z,4.20
2022-08-21T16:31:06.151Z,3.60
2022-08-21T16:33:41.929Z,4.37
2022-08-21T16:36:15.375Z,3.57
2022-08-21T16:38:48.969Z,3.47
2022-08-21T16:41:21.562Z,4.17
2022-08-21T16:43:54.284Z,4.00
2022-08-21T16:46:30.798Z,3.73
2022-08-21T16:49:00.954Z,3.70
2022-08-21T16:51:32.065Z,3.73
2022-08-21T16:54:05.062Z,3.73
2022-08-21T16:56:40.088Z,3.77
2022-08-21T16:59:13.814Z,3.57
2022-08-21T17:01:44.024Z,3.90
2022-08-21T17:04:13.972Z,3.33
2022-08-21T17:06:49.301Z,3.63
2022-08-21T17:09:19.386Z,3.23
2022-08-21T17:11:51.426Z,3.63
2022-08-21T17:14:23.284Z,3.03
2022-08-21T17:16:58.921Z,2.87
2022-08-21T17:19:28.372Z,3.07
2022-08-21T17:22:01.182Z,2.90
2022-08-21T17:24:31.512Z,3.07
2022-08-21T17:27:02.297Z,3.30
2022-08-21T17:29:36.629Z,3.30
2022-08-21T17:32:12.488Z,3.40
2022-08-21T17:34:42.584Z,3.10
2022-08-21T17:37:13.584Z,3.27
2022-08-21T17:39:43.960Z,3.00
2022-08-21T17:42:15.480Z,3.47
2022-08-21T17:44:50.139Z,3.00
2022-08-21T17:47:21.392Z,3.10
2022-08-21T17:49:51.216Z,3.03
2022-08-21T17:52:23.416Z,2.87
2022-08-21T17:54:55.929Z,3.00
2022-08-21T17:57:31.401Z,2.80
2022-08-21T18:00:02.637Z,2.93
2022-08-21T18:02:41.876Z,2.53
2022-08-21T18:05:14.141Z,2.70
2022-08-21T18:07:47.768Z,3.00
2022-08-21T18:10:19.323Z,2.67
2022-08-21T18:12:50.201Z,2.67
2022-08-21T18:15:23.039Z,3.30
2022-08-21T18:17:55.069Z,2.80
2022-08-21T18:20:27.837Z,3.17
2022-08-21T18:23:01.772Z,2.90
2022-08-21T18:25:35.227Z,2.80
2022-08-21T18:28:10.020Z,3.03
2022-08-21T18:30:44.347Z,3.00
2022-08-21T18:33:21.155Z,3.40
2022-08-21T18:35:52.396Z,2.70
2022-08-21T18:38:25.286Z,2.77
2022-08-21T18:40:58.005Z,2.97
2022-08-21T18:43:31.120Z,2.67
2022-08-21T18:46:05.933Z,3.33
2022-08-21T18:48:38.147Z,2.50
2022-08-21T18:51:09.948Z,2.77
2022-08-21T18:53:45.239Z,2.63
2022-08-21T18:56:22.898Z,2.57
2022-08-21T18:58:59.566Z,2.63
2022-08-21T19:01:32.893Z,2.70
2022-08-21T19:04:04.756Z,2.87
2022-08-21T19:06:37.842Z,2.27
2022-08-21T19:09:15.691Z,2.93
2022-08-21T19:11:49.060Z,2.63
2022-08-21T19:14:23.807Z,2.40
2022-08-21T19:16:59.025Z,2.70
2022-08-21T19:19:31.502Z,2.90
2022-08-21T19:22:06.226Z,2.70
2022-08-21T19:24:50.196Z,2.63
2022-08-21T19:27:25.351Z,2.70
2022-08-21T19:29:56.500Z,2.50
2022-08-21T19:32:30.802Z,2.47
2022-08-21T19:35:06.910Z,3.10
2022-08-21T19:37:39.447Z,3.00
2022-08-21T19:40:18.783Z,2.67
2022-08-21T19:42:57.135Z,2.63
2022-08-21T19:45:37.359Z,2.80
2022-08-21T19:48:12.709Z,2.50
2022-08-21T19:50:45.225Z,3.00
2022-08-21T19:53:17.874Z,2.90
2022-08-21T19:55:53.694Z,3.30
2022-08-21T19:58:39.440Z,2.60
2022-08-21T20:01:16.519Z,2.60
2022-08-21T20:03:53.695Z,3.10
2022-08-21T20:06:37.980Z,2.87
2022-08-21T20:09:10.705Z,2.80
2022-08-21T20:11:46.409Z,3.00
2022-08-21T20:14:23.528Z,3.00
2022-08-21T20:16:56.958Z,2.90
2022-08-21T20:19:29.082Z,2.80
2022-08-21T20:22:03.876Z,2.80
2022-08-21T20:24:35.673Z,2.80
2022-08-21T20:27:15.409Z,2.70
2022-08-21T20:29:46.841Z,2.77
2022-08-21T20:32:23.194Z,3.00
2022-08-21T20:34:55.177Z,3.00
2022-08-21T20:37:36.726Z,3.07
2022-08-21T20:40:32.060Z,3.13
2022-08-21T20:43:05.772Z,3.10
2022-08-21T20:45:39.924Z,2.80
2022-08-21T20:48:18.948Z,3.80
2022-08-21T20:51:02.613Z,3.70
2022-08-21T20:53:44.760Z,3.13
2022-08-21T20:56:38.626Z,3.83
2022-08-21T20:59:24.068Z,4.10
2022-08-21T21:01:58.064Z,3.90
2022-08-21T21:04:42.578Z,3.90
2022-08-21T21:07:20.149Z,4.10
2022-08-21T21:09:52.891Z,4.30
2022-08-21T21:12:30.606Z,4.17
2022-08-21T21:15:07.307Z,4.40
2022-08-21T21:17:43.884Z,4.30
2022-08-21T21:20:21.803Z,4.30
2022-08-21T21:23:09.184Z,4.70
2022-08-21T21:25:44.539Z,4.73
2022-08-21T21:28:20.847Z,4.27
2022-08-21T21:30:57.481Z,5.13
2022-08-21T21:33:28.718Z,4.60
2022-08-21T21:36:24.623Z,4.73
2022-08-21T21:39:03.039Z,4.60
2022-08-21T21:41:37.543Z,4.70
2022-08-21T21:44:31.932Z,4.87
2022-08-21T21:47:28.746Z,4.80
2022-08-21T21:50:22.619Z,4.90
2022-08-21T21:53:12.395Z,5.07
2022-08-21T21:56:13.315Z,5.27
2022-08-21T21:59:06.435Z,4.77
2022-08-21T22:01:47.354Z,4.50
2022-08-21T22:04:29.259Z,5.10
2022-08-21T22:07:07.341Z,5.23
2022-08-21T22:09:46.098Z,5.10
2022-08-21T22:12:37.926Z,5.00
2022-08-21T22:15:27.473Z,5.17
2022-08-21T22:18:03.612Z,5.27
2022-08-21T22:20:40.514Z,5.60
2022-08-21T22:23:16.035Z,4.87
2022-08-21T22:25:54.813Z,4.53
2022-08-21T22:28:32.066Z,4.80
2022-08-21T22:31:18.084Z,4.70
2022-08-21T22:34:17.894Z,3.90
2022-08-21T22:37:00.256Z,4.43
2022-08-21T22:39:38.821Z,4.50
2022-08-21T22:42:16.305Z,4.47
2022-08-21T22:44:54.357Z,4.30
2022-08-21T22:47:32.869Z,4.97
2022-08-21T22:50:09.302Z,5.00
2022-08-21T22:52:49.641Z,4.60
2022-08-21T22:55:26.269Z,4.53
2022-08-21T22:58:10.598Z,4.90
2022-08-21T23:00:53.450Z,4.77
2022-08-21T23:03:32.162Z,4.30
2022-08-21T23:09:00.293Z,4.37
2022-08-21T23:11:40.058Z,4.50
2022-08-21T23:14:14.331Z,4.50
2022-08-21T23:16:56.092Z,4.87
2022-08-21T23:19:40.601Z,4.20
2022-08-21T23:22:30.436Z,4.20
2022-08-21T23:25:14.965Z,4.40
2022-08-21T23:27:58.773Z,4.50
2022-08-21T23:30:42.123Z,4.63
2022-08-21T23:33:26.867Z,5.20
2022-08-21T23:36:23.264Z,4.93
2022-08-21T23:39:06.328Z,5.10
2022-08-21T23:41:46.136Z,5.13
2022-08-21T23:44:36.700Z,5.13
2022-08-21T23:47:24.724Z,5.40
2022-08-21T23:50:04.870Z,4.80
2022-08-21T23:52:56.387Z,4.63
2022-08-21T23:55:54.649Z,4.53
2022-08-21T23:58:37.239Z,5.00
